createdAt,value
2018-01-16T00:01:57.198Z,26.10
2018-01-16T00:04:24.679Z,28.43
2018-01-16T00:06:52.958Z,30.67
2018-01-16T00:09:21.238Z,29.87
2018-01-16T00:11:49.478Z,27.53
2018-01-16T00:14:16.962Z,28.40
2018-01-16T00:16:44.449Z,30.83
2018-01-16T00:19:11.922Z,26.03
2018-01-16T00:21:39.398Z,28.20
2018-01-16T00:24:06.885Z,29.47
2018-01-16T00:26:34.354Z,34.33
2018-01-16T00:29:02.598Z,29.93
2018-01-16T00:31:30.089Z,31.80
2018-01-16T00:33:58.333Z,33.67
2018-01-16T00:36:25.813Z,37.20
2018-01-16T00:38:53.317Z,35.40
2018-01-16T00:41:20.841Z,34.07
2018-01-16T00:43:49.093Z,32.77
2018-01-16T00:46:16.581Z,31.33
2018-01-16T00:48:44.829Z,30.73
2018-01-16T00:51:12.324Z,31.00
2018-01-16T00:53:40.711Z,30.37
2018-01-16T00:56:09.047Z,34.87
2018-01-16T00:58:36.535Z,36.17
2018-01-16T01:01:04.838Z,30.77
2018-01-16T01:03:32.335Z,33.03
2018-01-16T01:05:59.808Z,33.10
2018-01-16T01:08:27.303Z,31.13
2018-01-16T01:10:54.778Z,33.87
2018-01-16T01:13:22.258Z,34.00
2018-01-16T01:15:49.746Z,34.47
2018-01-16T01:18:17.222Z,35.33
2018-01-16T01:20:45.486Z,32.70
2018-01-16T01:23:13.054Z,34.53
2018-01-16T01:25:41.299Z,33.93
2018-01-16T01:28:08.881Z,29.07
2018-01-16T01:30:36.378Z,31.77
2018-01-16T01:33:03.857Z,32.20
2018-01-16T01:35:31.338Z,34.20
2018-01-16T01:37:58.829Z,33.73
2018-01-16T01:40:27.093Z,32.87
2018-01-16T01:42:55.371Z,31.47
2018-01-16T01:45:23.625Z,31.00
2018-01-16T01:47:51.139Z,31.20
2018-01-16T01:50:18.613Z,31.57
2018-01-16T01:52:46.121Z,36.90
2018-01-16T01:55:14.364Z,30.23
2018-01-16T01:57:41.851Z,29.00
2018-01-16T02:00:09.343Z,36.57
2018-01-16T02:02:36.827Z,29.37
2018-01-16T02:07:39.558Z,30.10
2018-01-16T02:10:08.550Z,31.50
2018-01-16T02:12:37.540Z,34.17
2018-01-16T02:15:05.022Z,34.37
2018-01-16T02:17:32.578Z,34.57
2018-01-16T02:20:00.830Z,33.87
2018-01-16T02:22:28.322Z,37.50
2018-01-16T02:24:56.566Z,34.97
2018-01-16T02:27:24.818Z,33.70
2018-01-16T02:29:52.318Z,33.57
2018-01-16T02:32:19.800Z,32.87
2018-01-16T02:34:47.286Z,36.90
2018-01-16T02:37:14.782Z,37.80
2018-01-16T02:39:43.022Z,34.03
2018-01-16T02:42:10.497Z,37.60
2018-01-16T02:44:37.993Z,37.67
2018-01-16T02:47:06.240Z,39.17
2018-01-16T02:49:33.723Z,36.67
2018-01-16T02:52:02.149Z,34.63
2018-01-16T02:54:29.628Z,30.80
2018-01-16T02:56:57.123Z,37.50
2018-01-16T02:59:25.382Z,34.73
2018-01-16T03:01:54.427Z,36.37
2018-01-16T03:04:21.944Z,36.00
2018-01-16T03:06:49.508Z,39.10
2018-01-16T03:09:17.762Z,42.40
2018-01-16T03:11:45.355Z,36.40
2018-01-16T03:14:13.618Z,33.87
2018-01-16T03:16:41.098Z,35.87
2018-01-16T03:19:09.340Z,42.60
2018-01-16T03:21:37.598Z,35.13
2018-01-16T03:24:05.075Z,32.93
2018-01-16T03:26:32.550Z,34.20
2018-01-16T03:29:00.806Z,34.83
2018-01-16T03:31:29.790Z,32.70
2018-01-16T03:33:57.266Z,38.17
2018-01-16T03:36:24.757Z,36.10
2018-01-16T03:38:52.237Z,38.53
2018-01-16T03:41:19.714Z,31.80
2018-01-16T03:43:47.201Z,33.90
2018-01-16T03:46:14.677Z,34.70
2018-01-16T03:48:42.947Z,41.17
2018-01-16T03:51:11.199Z,32.00
2018-01-16T03:53:38.672Z,33.13
2018-01-16T03:56:06.955Z,34.87
2018-01-16T03:58:35.235Z,29.27
2018-01-16T04:01:03.475Z,34.43
2018-01-16T04:03:30.955Z,34.47
2018-01-16T04:05:59.207Z,31.83
2018-01-16T04:08:26.684Z,35.23
2018-01-16T04:10:54.159Z,36.00
2018-01-16T04:13:22.422Z,34.53
2018-01-16T04:15:50.666Z,31.87
2018-01-16T04:18:18.142Z,39.33
2018-01-16T04:20:45.626Z,35.10
2018-01-16T04:23:13.878Z,34.03
2018-01-16T04:25:41.356Z,28.27
2018-01-16T04:28:08.842Z,31.47
2018-01-16T04:30:36.318Z,34.00
2018-01-16T04:33:03.837Z,30.33
2018-01-16T04:35:32.086Z,29.10
2018-01-16T04:37:59.566Z,32.57
2018-01-16T04:40:27.812Z,32.27
2018-01-16T04:42:55.304Z,35.37
2018-01-16T04:45:22.773Z,33.07
2018-01-16T04:47:51.038Z,31.03
2018-01-16T04:50:19.293Z,39.23
2018-01-16T04:52:46.768Z,35.17
2018-01-16T04:55:15.015Z,38.30
2018-01-16T04:57:42.501Z,42.67
2018-01-16T05:00:09.975Z,39.10
2018-01-16T05:02:39.137Z,36.93
2018-01-16T05:05:08.143Z,29.53
2018-01-16T05:07:37.127Z,32.73
2018-01-16T05:10:04.705Z,34.93
2018-01-16T05:12:32.270Z,29.13
2018-01-16T05:15:00.525Z,31.47
2018-01-16T05:17:29.514Z,32.70
2018-01-16T05:19:57.010Z,36.47
2018-01-16T05:22:25.250Z,35.10
2018-01-16T05:24:52.839Z,31.13
2018-01-16T05:27:21.086Z,31.60
2018-01-16T05:29:48.563Z,34.63
2018-01-16T05:32:16.046Z,33.87
2018-01-16T05:34:43.534Z,33.33
2018-01-16T05:37:11.044Z,30.00
2018-01-16T05:39:39.318Z,32.47
2018-01-16T05:42:07.621Z,33.20
2018-01-16T05:44:35.093Z,32.37
2018-01-16T05:47:02.613Z,30.80
2018-01-16T05:49:30.866Z,35.60
2018-01-16T05:51:59.111Z,29.90
2018-01-16T05:54:26.623Z,36.43
2018-01-16T05:56:54.879Z,38.60
2018-01-16T05:59:22.383Z,32.97
2018-01-16T06:01:49.861Z,36.87
2018-01-16T06:04:17.345Z,34.87
2018-01-16T06:06:44.823Z,31.43
2018-01-16T06:09:12.303Z,33.17
2018-01-16T06:11:40.572Z,36.80
2018-01-16T06:14:08.840Z,30.70
2018-01-16T06:16:36.312Z,32.17
2018-01-16T06:19:04.571Z,32.40
2018-01-16T06:21:32.150Z,33.30
2018-01-16T06:24:00.418Z,30.77
2018-01-16T06:26:28.667Z,31.07
2018-01-16T06:28:56.250Z,30.03
2018-01-16T06:31:24.490Z,30.77
2018-01-16T06:33:51.986Z,35.43
2018-01-16T06:36:20.226Z,28.30
2018-01-16T06:38:47.730Z,35.70
2018-01-16T06:41:16.102Z,30.40
2018-01-16T06:43:44.409Z,27.43
2018-01-16T06:46:11.891Z,34.80
2018-01-16T06:48:39.398Z,35.57
2018-01-16T06:51:07.637Z,29.77
2018-01-16T06:53:35.125Z,29.87
2018-01-16T06:56:03.401Z,30.97
2018-01-16T06:58:31.645Z,28.53
2018-01-16T07:00:59.121Z,27.83
2018-01-16T07:03:26.611Z,31.30
2018-01-16T07:05:54.845Z,28.73
2018-01-16T07:08:22.329Z,27.47
2018-01-16T07:10:49.819Z,25.43
2018-01-16T07:13:17.299Z,31.40
2018-01-16T07:15:44.810Z,28.03
2018-01-16T07:18:13.063Z,27.03
2018-01-16T07:20:41.362Z,29.10
2018-01-16T07:23:09.606Z,26.10
2018-01-16T07:25:37.106Z,23.80
2018-01-16T07:28:04.584Z,23.13
2018-01-16T07:30:32.058Z,23.97
2018-01-16T07:32:59.548Z,25.53
2018-01-16T07:35:28.529Z,26.63
2018-01-16T07:37:56.010Z,21.30
2018-01-16T07:40:23.545Z,21.83
2018-01-16T07:42:51.034Z,24.13
2018-01-16T07:45:18.531Z,23.93
2018-01-16T07:47:46.022Z,24.17
2018-01-16T07:50:13.498Z,21.47
2018-01-16T07:52:40.969Z,23.87
2018-01-16T07:55:09.229Z,21.67
2018-01-16T07:57:36.701Z,24.20
2018-01-16T08:00:04.949Z,22.20
2018-01-16T08:02:32.531Z,25.20
2018-01-16T08:05:01.529Z,22.60
2018-01-16T08:07:29.013Z,23.13
2018-01-16T08:09:56.503Z,24.43
2018-01-16T08:12:23.988Z,21.17
2018-01-16T08:14:52.968Z,25.17
2018-01-16T08:17:21.242Z,20.00
2018-01-16T08:19:48.740Z,19.50
2018-01-16T08:22:17.015Z,23.90
2018-01-16T08:24:45.294Z,21.73
2018-01-16T08:27:13.558Z,21.30
2018-01-16T08:29:41.026Z,21.87
2018-01-16T08:32:09.282Z,18.93
2018-01-16T08:34:36.766Z,21.10
2018-01-16T08:37:05.020Z,16.07
2018-01-16T08:39:34.014Z,16.90
2018-01-16T08:42:01.489Z,18.40
2018-01-16T08:44:29.737Z,19.50
2018-01-16T08:46:57.230Z,17.50
2018-01-16T08:49:25.473Z,16.00
2018-01-16T08:51:52.959Z,16.60
2018-01-16T08:54:20.625Z,16.57
2018-01-16T08:56:48.870Z,13.47
2018-01-16T08:59:16.347Z,19.03
2018-01-16T09:01:43.839Z,16.13
2018-01-16T09:04:11.317Z,14.47
2018-01-16T09:06:38.795Z,14.80
2018-01-16T09:09:06.277Z,15.03
2018-01-16T09:11:34.535Z,18.40
2018-01-16T09:14:02.023Z,15.07
2018-01-16T09:16:30.273Z,11.40
2018-01-16T09:18:57.751Z,3.30
2018-01-16T09:21:25.227Z,4.67
2018-01-16T09:23:53.478Z,0.63
2018-01-16T09:26:20.946Z,0.73
2018-01-16T09:28:49.191Z,0.60
2018-01-16T09:31:17.442Z,0.80
2018-01-16T09:33:44.914Z,0.70
2018-01-16T09:36:12.382Z,0.70
2018-01-16T09:38:39.874Z,0.73
2018-01-16T09:41:08.104Z,1.27
2018-01-16T09:43:35.574Z,1.43
2018-01-16T09:46:03.054Z,0.50
2018-01-16T09:48:31.294Z,0.60
2018-01-16T09:50:58.762Z,0.50
2018-01-16T09:53:26.238Z,0.50
2018-01-16T09:55:53.814Z,1.03
2018-01-16T09:58:22.053Z,0.60
2018-01-16T10:00:49.539Z,1.53
2018-01-16T10:03:17.012Z,1.10
2018-01-16T10:05:45.247Z,0.60
2018-01-16T10:08:12.733Z,1.10
2018-01-16T10:10:40.201Z,1.00
2018-01-16T10:13:08.443Z,2.43
2018-01-16T10:15:35.921Z,2.23
2018-01-16T10:18:03.505Z,0.50
2018-01-16T10:20:31.734Z,0.77
2018-01-16T10:22:59.231Z,0.67
2018-01-16T10:25:27.497Z,0.70
2018-01-16T10:27:55.058Z,2.20
2018-01-16T10:30:22.538Z,0.53
2018-01-16T10:32:50.078Z,0.50
2018-01-16T10:35:17.638Z,0.70
2018-01-16T10:37:45.117Z,1.13
2018-01-16T10:40:13.346Z,1.00
2018-01-16T10:42:40.822Z,0.50
2018-01-16T10:45:08.310Z,0.50
2018-01-16T10:47:36.542Z,0.47
2018-01-16T10:50:04.006Z,0.53
2018-01-16T10:52:31.481Z,0.60
2018-01-16T10:54:59.738Z,0.83
2018-01-16T10:57:28.710Z,0.50
2018-01-16T10:59:56.196Z,0.63
2018-01-16T11:02:23.661Z,0.40
2018-01-16T11:04:51.130Z,0.67
2018-01-16T11:07:19.415Z,0.40
2018-01-16T11:09:47.659Z,4.33
2018-01-16T11:12:15.131Z,0.77
2018-01-16T11:14:42.697Z,0.60
2018-01-16T11:17:10.937Z,0.60
2018-01-16T11:19:38.423Z,0.40
2018-01-16T11:22:05.903Z,1.07
2018-01-16T11:24:34.147Z,0.40
2018-01-16T11:27:01.615Z,0.50
2018-01-16T11:29:29.875Z,0.40
2018-01-16T11:31:57.362Z,0.40
2018-01-16T11:34:25.610Z,0.40
2018-01-16T11:36:53.199Z,0.50
2018-01-16T11:39:21.446Z,0.50
2018-01-16T11:41:48.918Z,0.30
2018-01-16T11:44:16.418Z,2.27
2018-01-16T11:46:44.602Z,0.60
2018-01-16T11:49:12.562Z,3.33
2018-01-16T11:51:40.046Z,0.73
2018-01-16T11:54:07.528Z,0.50
2018-01-16T11:56:35.110Z,0.50
2018-01-16T11:59:03.360Z,1.30
2018-01-16T12:01:30.825Z,0.40
2018-01-16T12:03:58.303Z,0.60
2018-01-16T12:06:26.594Z,0.47
2018-01-16T12:08:54.824Z,0.40
2018-01-16T12:11:22.295Z,0.70
2018-01-16T12:13:49.785Z,0.60
2018-01-16T12:16:17.260Z,1.37
2018-01-16T12:18:44.755Z,0.70
2018-01-16T12:21:12.239Z,0.73
2018-01-16T12:23:41.255Z,0.63
2018-01-16T12:26:08.727Z,0.60
2018-01-16T12:28:36.233Z,0.60
2018-01-16T12:31:05.225Z,0.40
2018-01-16T12:33:32.704Z,0.60
2018-01-16T12:36:00.979Z,1.60
2018-01-16T12:38:29.219Z,1.30
2018-01-16T12:40:56.722Z,1.00
2018-01-16T12:43:24.986Z,0.73
2018-01-16T12:45:52.464Z,1.80
2018-01-16T12:48:22.251Z,0.70
2018-01-16T12:50:50.147Z,0.80
2018-01-16T12:53:17.622Z,0.80
2018-01-16T12:55:45.092Z,0.70
2018-01-16T12:58:12.580Z,1.03
2018-01-16T13:00:40.888Z,0.73
2018-01-16T13:03:09.146Z,0.60
2018-01-16T13:05:36.643Z,2.97
2018-01-16T13:08:04.115Z,0.60
2018-01-16T13:10:31.625Z,1.00
2018-01-16T13:12:59.193Z,0.67
2018-01-16T13:15:27.439Z,0.80
2018-01-16T13:17:54.923Z,0.43
2018-01-16T13:20:22.403Z,0.50
2018-01-16T13:22:49.894Z,0.60
2018-01-16T13:25:17.405Z,0.90
2018-01-16T13:27:45.675Z,0.70
2018-01-16T13:30:13.925Z,0.50
2018-01-16T13:32:41.410Z,0.50
2018-01-16T13:35:09.675Z,0.90
2018-01-16T13:37:37.254Z,0.40
2018-01-16T13:40:05.495Z,0.50
2018-01-16T13:42:33.090Z,0.50
2018-01-16T13:45:01.322Z,0.60
2018-01-16T13:47:28.790Z,0.67
2018-01-16T13:49:56.274Z,0.60
2018-01-16T13:52:24.594Z,0.40
2018-01-16T13:54:52.146Z,0.50
2018-01-16T13:57:19.618Z,0.93
2018-01-16T13:59:47.096Z,1.43
2018-01-16T14:02:14.584Z,0.40
2018-01-16T14:04:42.114Z,0.60
2018-01-16T14:07:09.565Z,0.47
2018-01-16T14:09:37.065Z,0.83
2018-01-16T14:12:05.310Z,0.93
2018-01-16T14:14:32.837Z,0.50
2018-01-16T14:17:00.375Z,0.50
2018-01-16T14:19:28.627Z,1.43
2018-01-16T14:21:56.099Z,2.30
2018-01-16T14:24:24.339Z,0.60
2018-01-16T14:26:51.819Z,0.47
2018-01-16T14:29:19.295Z,0.60
2018-01-16T14:31:47.529Z,1.47
2018-01-16T14:34:15.025Z,1.00
2018-01-16T14:36:43.265Z,0.90
2018-01-16T14:39:10.729Z,0.70
2018-01-16T14:41:38.246Z,1.53
2018-01-16T14:44:05.718Z,0.63
2018-01-16T14:46:33.220Z,1.07
2018-01-16T14:49:01.466Z,0.60
2018-01-16T14:51:28.938Z,1.00
2018-01-16T14:53:56.414Z,0.70
2018-01-16T14:56:23.938Z,2.27
2018-01-16T14:58:51.436Z,0.63
2018-01-16T15:01:19.702Z,1.03
2018-01-16T15:03:47.948Z,0.40
2018-01-16T15:06:15.431Z,0.70
2018-01-16T15:08:42.902Z,0.60
2018-01-16T15:11:10.382Z,0.60
2018-01-16T15:13:37.851Z,0.40
2018-01-16T15:16:05.337Z,1.07
2018-01-16T15:18:33.084Z,0.70
2018-01-16T15:21:00.555Z,0.50
2018-01-16T15:23:28.473Z,1.07
2018-01-16T15:25:56.743Z,0.40
2018-01-16T15:28:24.318Z,0.60
2018-01-16T15:30:52.619Z,0.40
2018-01-16T15:33:20.103Z,0.60
2018-01-16T15:35:47.578Z,0.90
2018-01-16T15:38:15.045Z,0.80
2018-01-16T15:40:43.302Z,0.83
2018-01-16T15:43:10.770Z,0.60
2018-01-16T15:45:38.239Z,0.50
2018-01-16T15:48:05.718Z,0.37
2018-01-16T15:50:33.974Z,0.40
2018-01-16T15:53:01.452Z,0.40
2018-01-16T15:55:29.690Z,0.73
2018-01-16T15:57:57.174Z,0.60
2018-01-16T16:00:24.809Z,1.23
2018-01-16T16:02:52.294Z,1.83
2018-01-16T16:05:20.546Z,0.70
2018-01-16T16:07:48.042Z,0.50
2018-01-16T16:10:16.298Z,0.60
2018-01-16T16:12:43.773Z,1.97
2018-01-16T16:15:12.016Z,2.57
2018-01-16T16:17:39.724Z,1.87
2018-01-16T16:20:07.189Z,0.77
2018-01-16T16:22:34.679Z,2.37
2018-01-16T16:25:02.161Z,1.70
2018-01-16T16:27:29.629Z,1.47
2018-01-16T16:29:57.102Z,8.23
2018-01-16T16:32:25.511Z,0.97
2018-01-16T16:34:52.989Z,0.47
2018-01-16T16:37:20.728Z,2.73
2018-01-16T16:39:48.293Z,2.63
2018-01-16T16:42:15.907Z,1.10
2018-01-16T16:44:43.623Z,0.60
2018-01-16T16:47:11.142Z,0.83
2018-01-16T16:49:39.418Z,1.60
2018-01-16T16:52:07.658Z,2.03
2018-01-16T16:54:35.198Z,1.00
2018-01-16T16:57:02.691Z,2.00
2018-01-16T16:59:30.174Z,1.47
2018-01-16T17:01:58.432Z,2.07
2018-01-16T17:04:25.921Z,4.80
2018-01-16T17:06:54.146Z,3.77
2018-01-16T17:09:21.662Z,3.30
2018-01-16T17:11:49.149Z,2.60
2018-01-16T17:14:16.623Z,2.17
2018-01-16T17:16:44.237Z,1.30
2018-01-16T17:19:12.674Z,2.00
2018-01-16T17:21:40.998Z,1.60
2018-01-16T17:24:08.486Z,2.10
2018-01-16T17:26:35.969Z,0.80
2018-01-16T17:29:03.445Z,0.73
2018-01-16T17:31:31.689Z,0.87
2018-01-16T17:33:59.167Z,2.50
2018-01-16T17:36:26.665Z,4.70
2018-01-16T17:38:54.195Z,2.17
2018-01-16T17:41:21.671Z,2.23
2018-01-16T17:43:49.912Z,1.53
2018-01-16T17:46:17.403Z,1.70
2018-01-16T17:48:45.693Z,2.13
2018-01-16T17:51:14.062Z,2.40
2018-01-16T17:53:43.062Z,1.90
2018-01-16T17:56:10.834Z,1.77
2018-01-16T17:58:38.374Z,1.97
2018-01-16T18:01:06.679Z,1.97
2018-01-16T18:03:34.150Z,1.97
2018-01-16T18:06:01.618Z,3.00
2018-01-16T18:08:29.183Z,0.97
2018-01-16T18:10:56.653Z,0.80
2018-01-16T18:13:24.136Z,3.40
2018-01-16T18:15:52.414Z,1.70
2018-01-16T18:18:20.665Z,1.50
2018-01-16T18:20:48.841Z,1.63
2018-01-16T18:23:16.335Z,1.03
2018-01-16T18:25:43.933Z,1.00
2018-01-16T18:28:15.881Z,3.40
2018-01-16T18:30:44.291Z,1.03
2018-01-16T18:33:11.825Z,2.37
2018-01-16T18:35:39.299Z,1.37
2018-01-16T18:38:06.803Z,1.67
2018-01-16T18:40:35.075Z,7.33
2018-01-16T18:43:03.339Z,7.50
2018-01-16T18:45:30.823Z,6.43
2018-01-16T18:47:58.313Z,1.73
2018-01-16T18:50:25.813Z,4.37
2018-01-16T18:52:53.306Z,1.07
2018-01-16T18:55:20.790Z,2.30
2018-01-16T18:57:48.406Z,2.53
2018-01-16T19:00:16.718Z,0.90
2018-01-16T19:02:44.184Z,1.80
2018-01-16T19:05:11.874Z,1.70
2018-01-16T19:07:39.894Z,1.98
2018-01-16T19:10:07.376Z,3.40
2018-01-16T19:12:34.850Z,2.50
2018-01-16T19:15:02.351Z,12.27
2018-01-16T19:17:30.602Z,6.43
2018-01-16T19:19:58.084Z,4.87
2018-01-16T19:22:26.341Z,2.20
2018-01-16T19:24:53.825Z,1.60
2018-01-16T19:27:22.428Z,11.70
2018-01-16T19:29:49.909Z,1.70
2018-01-16T19:32:17.475Z,1.87
2018-01-16T19:34:46.519Z,2.30
2018-01-16T19:37:14.847Z,1.60
2018-01-16T19:39:42.369Z,2.00
2018-01-16T19:42:09.925Z,8.00
2018-01-16T19:44:37.733Z,3.07
2018-01-16T19:47:06.157Z,2.67
2018-01-16T19:49:33.612Z,1.50
2018-01-16T19:52:01.903Z,5.97
2018-01-16T19:54:30.176Z,7.27
2018-01-16T19:56:58.423Z,1.80
2018-01-16T19:59:25.907Z,2.90
2018-01-16T20:01:54.155Z,0.80
2018-01-16T20:04:21.638Z,1.17
2018-01-16T20:06:49.898Z,4.93
2018-01-16T20:09:17.372Z,2.13
2018-01-16T20:11:45.606Z,3.80
2018-01-16T20:14:13.854Z,2.03
2018-01-16T20:16:41.328Z,1.73
2018-01-16T20:19:08.820Z,3.03
2018-01-16T20:21:36.318Z,13.50
2018-01-16T20:24:03.796Z,4.63
2018-01-16T20:26:31.284Z,1.63
2018-01-16T20:28:58.781Z,4.73
2018-01-16T20:31:27.023Z,11.97
2018-01-16T20:33:54.497Z,39.50
2018-01-16T20:36:22.185Z,2.10
2018-01-16T20:38:50.425Z,14.33
2018-01-16T20:41:17.903Z,8.43
2018-01-16T20:43:46.183Z,4.47
2018-01-16T20:46:14.591Z,15.43
2018-01-16T20:48:42.073Z,1.03
2018-01-16T20:51:09.581Z,2.83
2018-01-16T20:53:37.823Z,0.80
2018-01-16T20:56:06.816Z,1.00
2018-01-16T20:58:34.638Z,1.37
2018-01-16T21:01:02.719Z,1.67
2018-01-16T21:03:30.199Z,0.70
2018-01-16T21:05:58.194Z,3.13
2018-01-16T21:08:25.770Z,1.07
2018-01-16T21:10:54.010Z,2.10
2018-01-16T21:13:21.586Z,1.43
2018-01-16T21:15:49.090Z,1.53
2018-01-16T21:18:16.561Z,2.13
2018-01-16T21:20:44.082Z,1.10
2018-01-16T21:23:12.366Z,1.77
2018-01-16T21:25:40.606Z,1.50
2018-01-16T21:28:08.095Z,1.40
2018-01-16T21:30:36.335Z,1.23
2018-01-16T21:33:03.809Z,2.20
2018-01-16T21:35:32.057Z,1.90
2018-01-16T21:37:59.539Z,2.67
2018-01-16T21:40:27.005Z,1.27
2018-01-16T21:42:54.573Z,0.97
2018-01-16T21:45:22.947Z,0.70
2018-01-16T21:47:51.605Z,1.10
2018-01-16T21:50:19.097Z,0.70
2018-01-16T21:52:46.677Z,0.73
2018-01-16T21:55:14.184Z,1.23
2018-01-16T21:57:41.677Z,1.90
2018-01-16T22:00:09.925Z,0.73
2018-01-16T22:02:37.402Z,1.17
2018-01-16T22:05:06.394Z,0.80
2018-01-16T22:07:33.870Z,0.60
2018-01-16T22:10:02.106Z,3.23
2018-01-16T22:12:29.587Z,0.70
2018-01-16T22:14:57.070Z,1.97
2018-01-16T22:17:25.306Z,0.57
2018-01-16T22:19:52.782Z,1.10
2018-01-16T22:22:20.346Z,1.10
2018-01-16T22:24:47.818Z,0.83
2018-01-16T22:27:16.081Z,1.00
2018-01-16T22:29:44.317Z,0.50
2018-01-16T22:32:11.820Z,0.70
2018-01-16T22:34:40.639Z,1.50
2018-01-16T22:37:08.161Z,1.13
2018-01-16T22:39:36.403Z,2.63
2018-01-16T22:42:03.887Z,0.93
2018-01-16T22:44:31.361Z,1.07
2018-01-16T22:46:59.629Z,1.57
2018-01-16T22:49:27.883Z,2.87
2018-01-16T22:51:55.376Z,0.83
2018-01-16T22:54:23.614Z,3.87
2018-01-16T22:56:51.094Z,2.70
2018-01-16T22:59:18.567Z,1.43
2018-01-16T23:01:46.814Z,1.00
2018-01-16T23:04:14.294Z,1.63
2018-01-16T23:06:42.542Z,0.87
2018-01-16T23:09:10.014Z,1.43
2018-01-16T23:11:37.494Z,1.23
2018-01-16T23:14:05.845Z,1.13
2018-01-16T23:16:33.290Z,1.90
2018-01-16T23:19:00.763Z,1.37
2018-01-16T23:21:28.234Z,0.80
2018-01-16T23:23:56.477Z,1.10
2018-01-16T23:26:23.957Z,0.60
2018-01-16T23:28:51.430Z,0.90
2018-01-16T23:31:19.661Z,0.60
2018-01-16T23:33:47.161Z,0.60
2018-01-16T23:36:15.399Z,0.67
2018-01-16T23:38:42.893Z,1.00
2018-01-16T23:41:10.395Z,0.50
2018-01-16T23:43:37.865Z,0.60
2018-01-16T23:46:05.339Z,0.50
2018-01-16T23:48:32.831Z,0.40
2018-01-16T23:51:01.067Z,0.50
2018-01-16T23:53:28.543Z,2.50
2018-01-16T23:55:56.027Z,1.43
2018-01-16T23:58:24.292Z,0.60
